• Join FlightAware (Why Join?)
  • Login
  • US Flag 
03:24PM EDT


 

Airport Tracker/Info


-or-


 

Live Flight TrackerFlight Track Log ✈ N762VM ✈ 07-Oct-2013 ✈ KCXO - KLFT

Flight Track Log - Related Links

Times and Time Zones

All times are in EDT time to prevent confusion due to time zone crossing. See the N762VM flight status page for this flight to view local times or setup timezone preferences in your user account.

Time Position Orientation Groundspeed Altitude Reporting Facility
EDT Latitude Longitude Course Direction KTS MPH feet Rate Location/Type
05:03PM 30.3822 -95.3942 67° East 181 208 1,500  Level Houston Center
05:04PM 30.3889 -95.3764 67° East 171 197 2,300 1,440 Climbing Houston Center
05:05PM 30.3997 -95.3142 79° East 215 247 3,800 1,140 Climbing Houston Center
05:06PM 30.3883 -95.2425 100° East 227 261 4,900 540 Climbing Houston Center
05:07PM 30.3667 -95.1433 104° East 253 291 5,000 120 Climbing Houston Center
05:08PM 30.3400 -95.0750 114° Southeast 270 311 5,200 360 Climbing Houston Center
05:08PM 30.3306 -95.0700 155° Southeast 284 327 5,400 1,440 Climbing Houston Center
05:09PM 30.2664 -95.0719 181° South 241 277 6,700 1,320 Climbing Houston Center
05:09PM 30.2617 -95.0714 174° South 251 289 6,800 1,320 Climbing Houston Center
05:10PM 30.2011 -95.0703 179° South 239 275 8,100 1,320 Climbing Houston Center
05:10PM 30.1964 -95.0697 174° South 240 276 8,200 1,500 Climbing Houston Center
05:11PM 30.1483 -95.0236 140° Southeast 221 254 9,700 1,500 Climbing Houston Center
05:11PM 30.1481 -95.0225 106° East 228 262 9,800 960 Climbing Houston Center
05:12PM 30.0967 -94.9803 145° Southeast 223 257 10,900 1,020 Climbing Houston Center
05:13PM 30.0647 -94.9158 120° Southeast 240 276 11,700 720 Climbing Houston Center
05:13PM 30.0619 -94.9017 103° East 246 283 11,700 840 Level Houston Center
05:14PM 30.0564 -94.8300 95° East 245 282 12,700 1,020 Climbing Houston Center
05:14PM 30.0556 -94.8192 95° East 240 276 12,800 60 Climbing Houston Center
05:15PM 30.0464 -94.7467 98° East 269 310 12,800  Level Houston Center
05:15PM 30.0464 -94.7403 90° East 257 296 12,800 120 Level Houston Center
05:16PM 30.0361 -94.6500 97° East 279 321 13,000 60 Climbing Houston Center
05:17PM 30.0250 -94.5567 98° East 290 334 13,000  Level Houston Center
05:18PM 30.0125 -94.4486 98° East 293 337 13,000  Level Houston Center
05:19PM 30.0025 -94.3536 97° East 298 343 13,000  Level Houston Center
05:20PM 29.9975 -94.2592 93° East 297 342 13,000  Level Houston Center
05:21PM 30.0153 -94.1669 77° East 295 339 13,000  Level Houston Center
05:22PM 30.0247 -94.0744 83° East 292 336 13,000  Level Houston Center
05:23PM 30.0378 -93.9614 82° East 295 339 13,000  Level Houston Center
05:24PM 30.0469 -93.8683 83° East 295 339 13,000  Level Houston Center
05:26PM 30.0564 -93.7758 83° East 291 335 13,000  Level Houston Center
05:27PM 30.0561 -93.6806 90° East 298 343 13,000  Level Houston Center
05:28PM 30.0681 -93.5886 81° East 292 336 13,000  Level Houston Center
05:29PM 30.0806 -93.4778 83° East 294 338 13,000  Level Houston Center
05:30PM 30.0894 -93.3844 84° East 295 339 13,000  Level Houston Center
05:31PM 30.0989 -93.2906 83° East 297 342 13,000  Level Houston Center
05:32PM 30.1058 -93.1956 85° East 298 343 13,000  Level Houston Center
05:33PM 30.1139 -93.1019 84° East 296 341 13,000  Level Houston Center
05:34PM 30.1239 -92.9881 84° East 298 343 13,000 -240 Level Houston Center
05:35PM 30.1314 -92.8942 85° East 296 341 12,600 -660 Descending Houston Center
05:36PM 30.1392 -92.7956 85° East 303 349 11,700 -780 Descending Houston Center
05:37PM 30.1467 -92.7000 85° East 302 348 11,000 -360 Descending Houston Center
05:38PM 30.1558 -92.6092 83° East 293 337 11,000  Level Houston Center
05:39PM 30.1619 -92.5233 85° East 281 323 11,000 -360 Level Houston Center
05:40PM 30.1689 -92.4194 86° East 274 315 10,300 -1,440 Descending Houston Center
05:41PM 30.1728 -92.3294 87° East 277 319 8,100 -2,340 Descending Houston Center
05:42PM 30.1675 -92.2417 94° East 277 319 5,500 -2,400 Descending Houston Center
05:43PM 30.1606 -92.1581 95° East 271 312 3,200 -2,280 Descending Houston Center
05:45PM 30.1866 -92.0506 77° East  Level FlightAware Approximate
05:52PM 30.2000 -91.9833 77° East  Level FlightAware Approximate
05:53PM 30.2050 -91.9877 77° East  Level Estimated
05:54PM 30.2000 -91.9833 77° East  Level FlightAware Approximate
05:55PM 30.2050 -91.9877 77° East  Level Estimated
05:56PM 30.2000 -91.9833 77° East  Level FlightAware Approximate